Flight Track Log - Related Links

Times and Time Zones

All times are in EDT time to prevent confusion due to time zone crossing. See the N569SC flight status page for this flight to view local times or setup timezone preferences in your user account.

Time Position Orientation Groundspeed Altitude Reporting Facility
EDT Latitude Longitude Course Direction KTS MPH feet Rate Location/Type
Fri 08:55:04 AM 42.6575 -89.0667 65° Northeast 210 242 3,100  Level Chicago Center
Fri 08:56:06 AM 42.6858 -88.9853 65° Northeast 294 338 6,500 3,707 Climbing Chicago Center
Fri 08:57:07 AM 42.6872 -88.8808 89° East 282 325 10,700 3,805 Climbing Chicago Center
Fri 08:58:09 AM 42.6903 -88.7667 88° East 301 346 14,300 3,387 Climbing Chicago Center
Fri 08:59:11 AM 42.6939 -88.6475 88° East 314 361 17,700 2,976 Climbing Chicago Center
Fri 09:00:12 AM 42.6981 -88.5236 87° East 325 374 20,400 2,634 Climbing Chicago Center
Fri 09:01:14 AM 42.7028 -88.3664 88° East 351 404 23,100 2,390 Climbing Chicago Center
Fri 09:02:15 AM 42.7169 -88.2217 82° East 384 442 25,300 2,293 Climbing Chicago Center
Fri 09:03:17 AM 42.7447 -88.0769 75° East 395 455 27,800 2,419 Climbing Chicago Center
Fri 09:04:19 AM 42.7719 -87.9308 76° East 399 459 30,300 1,561 Climbing Chicago Center
Fri 09:05:20 AM 42.7989 -87.7819 76° East 404 465 31,000 341 Climbing Chicago Center
Fri 09:06:22 AM 42.8281 -87.6267 76° East 419 482 31,000  Level Chicago Center
Fri 09:07:24 AM 42.8589 -87.4433 77° East 425 489 31,000  Level Chicago Center
Fri 09:08:26 AM 42.8814 -87.2997 78° East 422 486 31,000  Level Chicago Center
Fri 09:09:27 AM 42.8903 -87.1439 85° East 407 468 31,000  Level Chicago Center
Fri 09:10:29 AM 42.8806 -86.9919 95° East 405 466 31,000  Level Chicago Center
Fri 09:11:31 AM 42.8692 -86.8081 95° East 406 467 31,000  Level Chicago Center
Fri 09:12:32 AM 42.8597 -86.6550 95° East 407 468 31,000 -439 Level Chicago Center
Fri 09:13:34 AM 42.8489 -86.5014 95° East 409 471 30,100 -968 Descending Chicago Center
Fri 09:14:36 AM 42.8386 -86.3453 95° East 414 476 29,000 -1,065 Descending Chicago Center
Fri 09:15:38 AM 42.8283 -86.1906 95° East 415 478 27,900 -1,073 Descending Chicago Center
Fri 09:16:39 AM 42.8181 -86.0392 95° East 411 473 26,800 -1,220 Descending Chicago Center
Fri 09:17:41 AM 42.8047 -85.8600 96° East 405 466 25,400 -871 Descending Chicago Center
Fri 09:18:43 AM 42.7953 -85.7131 95° East 398 458 25,000 -774 Descending Chicago Center
Fri 09:19:45 AM 42.7850 -85.5697 96° East 388 447 23,800 -1,220 Descending Chicago Center
Fri 09:20:46 AM 42.7758 -85.4336 95° East 371 427 22,500 -1,268 Descending Chicago Center
Fri 09:21:48 AM 42.7658 -85.3017 96° East 357 411 21,200 -726 Descending Chicago Center
Fri 09:22:50 AM 42.7553 -85.1700 96° East 351 404 21,000 -97 Descending Chicago Center
Fri 09:23:52 AM 42.7431 -85.0094 96° East 357 411 21,000 -98 Level Chicago Center
Fri 09:24:53 AM 42.7325 -84.8744 96° East 359 413 20,800 -1,024 Descending Chicago Center
Fri 09:25:55 AM 42.7214 -84.7397 96° East 360 414 18,900 -1,694 Descending Chicago Center
Fri 09:26:57 AM 42.7167 -84.6092 93° East 350 403 17,300 -1,636 Descending Chicago Center
Fri 09:27:23 AM 42.7128 -84.5539 95° East 355 409 16,500 -2,163 Descending Cleveland Center
Fri 09:28:23 AM 42.7128 -84.4294 90° East 342 394 14,200 -2,440 Descending Cleveland Center
Fri 09:28:54 AM 42.7153 -84.3561 87° East 325 374 12,800 -2,200 Descending Cleveland Center
Fri 09:29:23 AM 42.7108 -84.2964 96° East 330 380 12,000 -1,967 Descending Cleveland Center
Fri 09:29:55 AM 42.7108 -84.2369 90° East 311 358 10,800 -2,200 Descending Cleveland Center
Fri 09:30:23 AM 42.7103 -84.1833 91° East 312 359 9,800 -2,239 Descending Cleveland Center
Fri 09:31:02 AM 42.7106 -84.1125 90° East 296 341 8,300 -2,200 Descending Cleveland Center
Fri 09:31:23 AM 42.7097 -84.0703 92° East 300 345 7,600 -2,000 Descending Cleveland Center
Fri 09:32:02 AM 42.7031 -84.0078 98° East 276 318 6,300 -2,000 Descending Cleveland Center
Fri 09:32:23 AM 42.6958 -83.9706 105° East 284 327 5,600 -2,164 Descending Cleveland Center
Fri 09:33:03 AM 42.6833 -83.9019 104° East 272 313 4,100 -2,100 Descending Cleveland Center
Fri 09:33:23 AM 42.6758 -83.8706 108° East 277 319 3,500 -1,082 Descending Cleveland Center
Fri 09:34:04 AM 42.6653 -83.8050 102° East 258 297 3,000 -500 Descending Cleveland Center
Fri 09:34:23 AM 42.6597 -83.7767 105° East 264 304 3,000  Level Cleveland Center
Fri 09:35:05 AM 42.6575 -83.7114 93° East 247 284 3,000  Level Cleveland Center
Fri 09:35:23 AM 42.6561 -83.6861 94° East 252 290 3,000  Level Cleveland Center

Login

Don't have an account? Register now (free) for customized features, flight alerts, and more!